sensor_id;sensor_type;location;lat;lon;timestamp;P1;durP1;ratioP1;P2;durP2;ratioP2
53108;SDS011;39007;53.090;6.074;2024-02-16T00:00:01;12.93;;;4.50;;
53108;SDS011;39007;53.090;6.074;2024-02-16T00:02:28;9.52;;;3.70;;
53108;SDS011;39007;53.090;6.074;2024-02-16T00:04:54;14.98;;;4.00;;
53108;SDS011;39007;53.090;6.074;2024-02-16T00:07:20;10.02;;;3.90;;
53108;SDS011;39007;53.090;6.074;2024-02-16T00:09:46;8.38;;;3.75;;
53108;SDS011;39007;53.090;6.074;2024-02-16T00:12:12;10.77;;;4.20;;
53108;SDS011;39007;53.090;6.074;2024-02-16T00:14:40;7.18;;;3.85;;
53108;SDS011;39007;53.090;6.074;2024-02-16T00:17:06;10.18;;;3.90;;
53108;SDS011;39007;53.090;6.074;2024-02-16T00:19:32;12.07;;;4.00;;
53108;SDS011;39007;53.090;6.074;2024-02-16T00:21:58;9.55;;;3.80;;
53108;SDS011;39007;53.090;6.074;2024-02-16T00:24:25;10.98;;;3.70;;
53108;SDS011;39007;53.090;6.074;2024-02-16T00:26:51;10.05;;;3.80;;
53108;SDS011;39007;53.090;6.074;2024-02-16T00:29:17;11.68;;;3.80;;
53108;SDS011;39007;53.090;6.074;2024-02-16T00:31:44;10.63;;;3.50;;
53108;SDS011;39007;53.090;6.074;2024-02-16T00:34:10;10.02;;;3.90;;
53108;SDS011;39007;53.090;6.074;2024-02-16T00:36:36;10.65;;;3.83;;
53108;SDS011;39007;53.090;6.074;2024-02-16T00:39:02;8.77;;;3.75;;
53108;SDS011;39007;53.090;6.074;2024-02-16T00:41:29;9.18;;;3.15;;
53108;SDS011;39007;53.090;6.074;2024-02-16T00:43:55;9.82;;;3.75;;
53108;SDS011;39007;53.090;6.074;2024-02-16T00:46:24;9.70;;;3.88;;
53108;SDS011;39007;53.090;6.074;2024-02-16T00:48:51;8.93;;;3.97;;
53108;SDS011;39007;53.090;6.074;2024-02-16T00:51:17;8.07;;;3.80;;
53108;SDS011;39007;53.090;6.074;2024-02-16T00:53:43;9.23;;;3.38;;
53108;SDS011;39007;53.090;6.074;2024-02-16T00:56:09;8.57;;;3.55;;
53108;SDS011;39007;53.090;6.074;2024-02-16T00:58:36;10.30;;;3.97;;
53108;SDS011;39007;53.090;6.074;2024-02-16T01:01:03;10.95;;;3.65;;
53108;SDS011;39007;53.090;6.074;2024-02-16T01:03:30;8.93;;;3.63;;
53108;SDS011;39007;53.090;6.074;2024-02-16T01:05:56;11.57;;;3.60;;
53108;SDS011;39007;53.090;6.074;2024-02-16T01:08:22;7.88;;;3.42;;
53108;SDS011;39007;53.090;6.074;2024-02-16T01:10:48;10.32;;;3.40;;
53108;SDS011;39007;53.090;6.074;2024-02-16T01:13:14;7.70;;;3.42;;
53108;SDS011;39007;53.090;6.074;2024-02-16T01:15:40;7.05;;;3.35;;
53108;SDS011;39007;53.090;6.074;2024-02-16T01:18:06;9.23;;;3.50;;
53108;SDS011;39007;53.090;6.074;2024-02-16T01:20:32;8.85;;;3.40;;
53108;SDS011;39007;53.090;6.074;2024-02-16T01:22:58;7.50;;;3.47;;
53108;SDS011;39007;53.090;6.074;2024-02-16T01:25:25;13.00;;;3.40;;
53108;SDS011;39007;53.090;6.074;2024-02-16T01:27:51;7.57;;;3.35;;
53108;SDS011;39007;53.090;6.074;2024-02-16T01:30:17;10.10;;;3.60;;
53108;SDS011;39007;53.090;6.074;2024-02-16T01:32:45;8.20;;;3.58;;
53108;SDS011;39007;53.090;6.074;2024-02-16T01:35:11;7.53;;;3.45;;
53108;SDS011;39007;53.090;6.074;2024-02-16T01:37:40;9.77;;;3.53;;
53108;SDS011;39007;53.090;6.074;2024-02-16T01:40:07;9.25;;;3.42;;
53108;SDS011;39007;53.090;6.074;2024-02-16T01:42:34;9.00;;;3.58;;
53108;SDS011;39007;53.090;6.074;2024-02-16T01:45:00;10.40;;;3.50;;
53108;SDS011;39007;53.090;6.074;2024-02-16T01:47:26;9.52;;;3.40;;
53108;SDS011;39007;53.090;6.074;2024-02-16T01:49:52;6.20;;;3.20;;
53108;SDS011;39007;53.090;6.074;2024-02-16T01:52:18;9.02;;;3.40;;
53108;SDS011;39007;53.090;6.074;2024-02-16T01:54:45;10.27;;;3.45;;
53108;SDS011;39007;53.090;6.074;2024-02-16T01:57:11;12.20;;;3.70;;
53108;SDS011;39007;53.090;6.074;2024-02-16T01:59:37;10.15;;;3.58;;
53108;SDS011;39007;53.090;6.074;2024-02-16T02:02:05;7.65;;;3.70;;
53108;SDS011;39007;53.090;6.074;2024-02-16T02:04:32;8.68;;;3.28;;
53108;SDS011;39007;53.090;6.074;2024-02-16T02:06:59;7.78;;;3.47;;
53108;SDS011;39007;53.090;6.074;2024-02-16T02:09:25;8.35;;;3.50;;
53108;SDS011;39007;53.090;6.074;2024-02-16T02:11:51;8.88;;;3.63;;
53108;SDS011;39007;53.090;6.074;2024-02-16T02:14:17;8.30;;;3.42;;
53108;SDS011;39007;53.090;6.074;2024-02-16T02:16:43;9.13;;;3.53;;
53108;SDS011;39007;53.090;6.074;2024-02-16T02:19:10;9.98;;;3.80;;
53108;SDS011;39007;53.090;6.074;2024-02-16T02:21:36;10.45;;;3.80;;
53108;SDS011;39007;53.090;6.074;2024-02-16T02:24:02;9.18;;;3.30;;
53108;SDS011;39007;53.090;6.074;2024-02-16T02:26:29;10.13;;;3.63;;
53108;SDS011;39007;53.090;6.074;2024-02-16T02:28:55;6.93;;;3.13;;
53108;SDS011;39007;53.090;6.074;2024-02-16T02:31:21;8.43;;;3.33;;
53108;SDS011;39007;53.090;6.074;2024-02-16T02:33:47;7.03;;;3.83;;
53108;SDS011;39007;53.090;6.074;2024-02-16T02:36:13;8.65;;;3.58;;
53108;SDS011;39007;53.090;6.074;2024-02-16T02:38:40;9.43;;;3.60;;
53108;SDS011;39007;53.090;6.074;2024-02-16T02:41:06;8.43;;;3.47;;
53108;SDS011;39007;53.090;6.074;2024-02-16T02:43:32;9.10;;;3.60;;
53108;SDS011;39007;53.090;6.074;2024-02-16T02:45:58;8.75;;;3.40;;
53108;SDS011;39007;53.090;6.074;2024-02-16T02:48:24;10.82;;;3.28;;
53108;SDS011;39007;53.090;6.074;2024-02-16T02:50:50;8.90;;;3.90;;
53108;SDS011;39007;53.090;6.074;2024-02-16T02:53:16;8.63;;;3.50;;
53108;SDS011;39007;53.090;6.074;2024-02-16T02:55:43;9.38;;;3.60;;
53108;SDS011;39007;53.090;6.074;2024-02-16T02:58:09;10.05;;;3.50;;
53108;SDS011;39007;53.090;6.074;2024-02-16T03:00:35;7.32;;;3.50;;
53108;SDS011;39007;53.090;6.074;2024-02-16T03:03:01;7.10;;;3.22;;
53108;SDS011;39007;53.090;6.074;2024-02-16T03:05:27;9.55;;;3.55;;
53108;SDS011;39007;53.090;6.074;2024-02-16T03:07:53;11.60;;;3.70;;
53108;SDS011;39007;53.090;6.074;2024-02-16T03:10:20;9.38;;;3.10;;
53108;SDS011;39007;53.090;6.074;2024-02-16T03:12:48;8.45;;;3.50;;
53108;SDS011;39007;53.090;6.074;2024-02-16T03:15:15;8.45;;;3.78;;
53108;SDS011;39007;53.090;6.074;2024-02-16T03:17:42;8.20;;;3.53;;
53108;SDS011;39007;53.090;6.074;2024-02-16T03:20:08;10.07;;;3.63;;
53108;SDS011;39007;53.090;6.074;2024-02-16T03:22:34;8.60;;;3.20;;
53108;SDS011;39007;53.090;6.074;2024-02-16T03:25:01;7.35;;;3.35;;
53108;SDS011;39007;53.090;6.074;2024-02-16T03:27:27;9.35;;;3.70;;
53108;SDS011;39007;53.090;6.074;2024-02-16T03:29:53;8.57;;;3.45;;
53108;SDS011;39007;53.090;6.074;2024-02-16T03:32:19;9.73;;;3.40;;
53108;SDS011;39007;53.090;6.074;2024-02-16T03:34:46;7.72;;;3.22;;
53108;SDS011;39007;53.090;6.074;2024-02-16T03:37:12;9.05;;;3.83;;
53108;SDS011;39007;53.090;6.074;2024-02-16T03:39:38;7.00;;;2.97;;
53108;SDS011;39007;53.090;6.074;2024-02-16T03:42:04;8.20;;;3.75;;
53108;SDS011;39007;53.090;6.074;2024-02-16T03:44:30;9.88;;;3.80;;
53108;SDS011;39007;53.090;6.074;2024-02-16T03:46:56;8.55;;;3.55;;
53108;SDS011;39007;53.090;6.074;2024-02-16T03:49:22;8.88;;;3.70;;
53108;SDS011;39007;53.090;6.074;2024-02-16T03:51:48;8.15;;;3.67;;
53108;SDS011;39007;53.090;6.074;2024-02-16T03:54:15;6.95;;;3.45;;
53108;SDS011;39007;53.090;6.074;2024-02-16T03:56:41;8.30;;;3.60;;
53108;SDS011;39007;53.090;6.074;2024-02-16T03:59:07;13.70;;;3.70;;
53108;SDS011;39007;53.090;6.074;2024-02-16T04:01:33;9.43;;;3.47;;
53108;SDS011;39007;53.090;6.074;2024-02-16T04:03:59;11.07;;;3.92;;
53108;SDS011;39007;53.090;6.074;2024-02-16T04:06:25;5.68;;;3.30;;
53108;SDS011;39007;53.090;6.074;2024-02-16T04:08:51;8.65;;;3.65;;
53108;SDS011;39007;53.090;6.074;2024-02-16T04:11:17;7.50;;;3.60;;
53108;SDS011;39007;53.090;6.074;2024-02-16T04:13:43;8.02;;;3.75;;
53108;SDS011;39007;53.090;6.074;2024-02-16T04:16:09;7.03;;;3.53;;
53108;SDS011;39007;53.090;6.074;2024-02-16T04:18:35;8.68;;;3.75;;
53108;SDS011;39007;53.090;6.074;2024-02-16T04:21:01;8.30;;;3.40;;
53108;SDS011;39007;53.090;6.074;2024-02-16T04:23:27;8.45;;;3.90;;
53108;SDS011;39007;53.090;6.074;2024-02-16T04:25:53;10.07;;;3.67;;
53108;SDS011;39007;53.090;6.074;2024-02-16T04:28:19;9.27;;;3.60;;
53108;SDS011;39007;53.090;6.074;2024-02-16T04:30:46;7.38;;;3.70;;
53108;SDS011;39007;53.090;6.074;2024-02-16T04:33:12;8.77;;;3.90;;
53108;SDS011;39007;53.090;6.074;2024-02-16T04:35:38;9.05;;;3.42;;
53108;SDS011;39007;53.090;6.074;2024-02-16T04:38:04;7.50;;;3.42;;
53108;SDS011;39007;53.090;6.074;2024-02-16T04:40:33;12.10;;;4.10;;
53108;SDS011;39007;53.090;6.074;2024-02-16T04:43:00;6.30;;;3.60;;
53108;SDS011;39007;53.090;6.074;2024-02-16T04:45:26;10.25;;;3.67;;
53108;SDS011;39007;53.090;6.074;2024-02-16T04:47:55;7.72;;;3.78;;
53108;SDS011;39007;53.090;6.074;2024-02-16T04:50:21;9.52;;;3.17;;
53108;SDS011;39007;53.090;6.074;2024-02-16T04:52:47;9.10;;;3.53;;
53108;SDS011;39007;53.090;6.074;2024-02-16T04:55:13;10.48;;;4.07;;
53108;SDS011;39007;53.090;6.074;2024-02-16T04:57:39;9.75;;;3.80;;
53108;SDS011;39007;53.090;6.074;2024-02-16T05:00:06;6.95;;;3.47;;
53108;SDS011;39007;53.090;6.074;2024-02-16T05:02:34;8.45;;;3.85;;
53108;SDS011;39007;53.090;6.074;2024-02-16T05:05:00;6.82;;;3.38;;
53108;SDS011;39007;53.090;6.074;2024-02-16T05:07:26;10.38;;;4.05;;
53108;SDS011;39007;53.090;6.074;2024-02-16T05:09:52;7.80;;;3.55;;
53108;SDS011;39007;53.090;6.074;2024-02-16T05:12:23;7.63;;;3.60;;
53108;SDS011;39007;53.090;6.074;2024-02-16T05:14:51;9.32;;;3.30;;
53108;SDS011;39007;53.090;6.074;2024-02-16T05:17:18;8.98;;;3.72;;
53108;SDS011;39007;53.090;6.074;2024-02-16T05:19:45;6.45;;;3.60;;
53108;SDS011;39007;53.090;6.074;2024-02-16T05:22:11;7.53;;;3.83;;
53108;SDS011;39007;53.090;6.074;2024-02-16T05:24:37;9.00;;;3.75;;
53108;SDS011;39007;53.090;6.074;2024-02-16T05:27:03;9.57;;;3.50;;
53108;SDS011;39007;53.090;6.074;2024-02-16T05:29:30;6.65;;;3.80;;
53108;SDS011;39007;53.090;6.074;2024-02-16T05:31:56;6.53;;;3.47;;
53108;SDS011;39007;53.090;6.074;2024-02-16T05:34:22;7.18;;;3.47;;
53108;SDS011;39007;53.090;6.074;2024-02-16T05:36:49;7.60;;;3.60;;
53108;SDS011;39007;53.090;6.074;2024-02-16T05:39:15;6.78;;;3.60;;
53108;SDS011;39007;53.090;6.074;2024-02-16T05:41:56;7.05;;;3.53;;
53108;SDS011;39007;53.090;6.074;2024-02-16T05:44:22;7.28;;;3.40;;
53108;SDS011;39007;53.090;6.074;2024-02-16T05:46:49;9.88;;;3.80;;
53108;SDS011;39007;53.090;6.074;2024-02-16T05:49:15;8.65;;;3.30;;
53108;SDS011;39007;53.090;6.074;2024-02-16T05:51:41;9.40;;;3.80;;
53108;SDS011;39007;53.090;6.074;2024-02-16T05:54:07;7.90;;;3.58;;
53108;SDS011;39007;53.090;6.074;2024-02-16T05:56:34;7.65;;;3.80;;
53108;SDS011;39007;53.090;6.074;2024-02-16T05:59:02;10.13;;;3.55;;
53108;SDS011;39007;53.090;6.074;2024-02-16T06:01:31;7.82;;;3.92;;
53108;SDS011;39007;53.090;6.074;2024-02-16T06:03:57;7.05;;;3.80;;
53108;SDS011;39007;53.090;6.074;2024-02-16T06:06:23;8.38;;;3.70;;
53108;SDS011;39007;53.090;6.074;2024-02-16T06:08:49;7.15;;;3.60;;
53108;SDS011;39007;53.090;6.074;2024-02-16T06:11:15;6.63;;;3.88;;
53108;SDS011;39007;53.090;6.074;2024-02-16T06:13:41;9.48;;;3.72;;
53108;SDS011;39007;53.090;6.074;2024-02-16T06:16:07;11.63;;;3.95;;
53108;SDS011;39007;53.090;6.074;2024-02-16T06:18:34;9.70;;;3.60;;
53108;SDS011;39007;53.090;6.074;2024-02-16T06:21:01;7.57;;;3.70;;
53108;SDS011;39007;53.090;6.074;2024-02-16T06:23:27;7.35;;;3.47;;
53108;SDS011;39007;53.090;6.074;2024-02-16T06:25:53;8.65;;;3.90;;
53108;SDS011;39007;53.090;6.074;2024-02-16T06:28:19;8.10;;;4.15;;
53108;SDS011;39007;53.090;6.074;2024-02-16T06:30:45;9.55;;;3.90;;
53108;SDS011;39007;53.090;6.074;2024-02-16T06:33:11;9.32;;;3.72;;
53108;SDS011;39007;53.090;6.074;2024-02-16T06:35:37;9.35;;;3.70;;
53108;SDS011;39007;53.090;6.074;2024-02-16T06:38:03;9.50;;;3.97;;
53108;SDS011;39007;53.090;6.074;2024-02-16T06:40:29;10.73;;;3.90;;
53108;SDS011;39007;53.090;6.074;2024-02-16T06:42:56;8.50;;;3.80;;
53108;SDS011;39007;53.090;6.074;2024-02-16T06:45:22;7.45;;;3.67;;
53108;SDS011;39007;53.090;6.074;2024-02-16T06:47:48;8.52;;;3.28;;
53108;SDS011;39007;53.090;6.074;2024-02-16T06:50:14;7.70;;;3.88;;
53108;SDS011;39007;53.090;6.074;2024-02-16T06:52:41;7.45;;;4.25;;
53108;SDS011;39007;53.090;6.074;2024-02-16T06:55:07;7.53;;;3.70;;
53108;SDS011;39007;53.090;6.074;2024-02-16T06:57:33;8.45;;;3.80;;
53108;SDS011;39007;53.090;6.074;2024-02-16T06:59:59;8.07;;;3.75;;
53108;SDS011;39007;53.090;6.074;2024-02-16T07:02:25;8.45;;;4.18;;
53108;SDS011;39007;53.090;6.074;2024-02-16T07:04:51;12.70;;;3.60;;
53108;SDS011;39007;53.090;6.074;2024-02-16T07:07:17;8.13;;;3.70;;
53108;SDS011;39007;53.090;6.074;2024-02-16T07:09:44;9.15;;;3.78;;
53108;SDS011;39007;53.090;6.074;2024-02-16T07:12:10;10.02;;;4.07;;
53108;SDS011;39007;53.090;6.074;2024-02-16T07:14:37;7.85;;;3.85;;
53108;SDS011;39007;53.090;6.074;2024-02-16T07:17:04;9.90;;;3.78;;
53108;SDS011;39007;53.090;6.074;2024-02-16T07:19:34;6.22;;;3.58;;
53108;SDS011;39007;53.090;6.074;2024-02-16T07:22:00;8.35;;;3.70;;
53108;SDS011;39007;53.090;6.074;2024-02-16T07:24:26;9.98;;;4.10;;
53108;SDS011;39007;53.090;6.074;2024-02-16T07:26:52;7.95;;;3.70;;
53108;SDS011;39007;53.090;6.074;2024-02-16T07:29:18;8.02;;;3.75;;
53108;SDS011;39007;53.090;6.074;2024-02-16T07:31:44;6.60;;;3.72;;
53108;SDS011;39007;53.090;6.074;2024-02-16T07:34:10;10.45;;;3.78;;
53108;SDS011;39007;53.090;6.074;2024-02-16T07:36:37;7.43;;;4.07;;
53108;SDS011;39007;53.090;6.074;2024-02-16T07:39:03;9.82;;;4.53;;
53108;SDS011;39007;53.090;6.074;2024-02-16T07:41:30;7.18;;;4.10;;
53108;SDS011;39007;53.090;6.074;2024-02-16T07:43:56;7.80;;;4.20;;
53108;SDS011;39007;53.090;6.074;2024-02-16T07:46:22;8.68;;;4.25;;
53108;SDS011;39007;53.090;6.074;2024-02-16T07:48:48;9.57;;;4.72;;
53108;SDS011;39007;53.090;6.074;2024-02-16T07:51:14;10.13;;;4.95;;
53108;SDS011;39007;53.090;6.074;2024-02-16T07:53:40;7.47;;;3.70;;
53108;SDS011;39007;53.090;6.074;2024-02-16T07:56:09;7.15;;;4.05;;
53108;SDS011;39007;53.090;6.074;2024-02-16T07:58:35;9.85;;;4.53;;
53108;SDS011;39007;53.090;6.074;2024-02-16T08:01:01;11.50;;;4.25;;
53108;SDS011;39007;53.090;6.074;2024-02-16T08:03:27;10.85;;;4.15;;
53108;SDS011;39007;53.090;6.074;2024-02-16T08:05:54;7.53;;;4.20;;
53108;SDS011;39007;53.090;6.074;2024-02-16T08:08:21;7.70;;;4.55;;
53108;SDS011;39007;53.090;6.074;2024-02-16T08:10:48;8.23;;;4.00;;
53108;SDS011;39007;53.090;6.074;2024-02-16T08:13:17;10.40;;;5.03;;
53108;SDS011;39007;53.090;6.074;2024-02-16T08:15:44;9.10;;;4.60;;
53108;SDS011;39007;53.090;6.074;2024-02-16T08:18:10;9.88;;;4.75;;
53108;SDS011;39007;53.090;6.074;2024-02-16T08:20:38;7.90;;;4.13;;
53108;SDS011;39007;53.090;6.074;2024-02-16T08:23:04;16.70;;;4.40;;
53108;SDS011;39007;53.090;6.074;2024-02-16T08:25:30;7.60;;;4.47;;
53108;SDS011;39007;53.090;6.074;2024-02-16T08:27:58;8.85;;;4.80;;
53108;SDS011;39007;53.090;6.074;2024-02-16T08:30:25;8.57;;;4.40;;
53108;SDS011;39007;53.090;6.074;2024-02-16T08:32:51;8.30;;;4.78;;
53108;SDS011;39007;53.090;6.074;2024-02-16T08:35:17;8.55;;;4.50;;
53108;SDS011;39007;53.090;6.074;2024-02-16T08:37:43;9.65;;;5.00;;
53108;SDS011;39007;53.090;6.074;2024-02-16T08:40:12;13.48;;;4.95;;
53108;SDS011;39007;53.090;6.074;2024-02-16T08:42:40;7.85;;;4.65;;
53108;SDS011;39007;53.090;6.074;2024-02-16T08:45:07;11.70;;;5.00;;
53108;SDS011;39007;53.090;6.074;2024-02-16T08:47:34;9.55;;;5.35;;
53108;SDS011;39007;53.090;6.074;2024-02-16T08:50:00;10.70;;;5.18;;
53108;SDS011;39007;53.090;6.074;2024-02-16T08:52:26;10.45;;;5.28;;
53108;SDS011;39007;53.090;6.074;2024-02-16T08:54:52;11.55;;;5.43;;
53108;SDS011;39007;53.090;6.074;2024-02-16T08:57:19;11.90;;;5.50;;
53108;SDS011;39007;53.090;6.074;2024-02-16T08:59:45;11.25;;;5.72;;
53108;SDS011;39007;53.090;6.074;2024-02-16T09:02:11;12.15;;;6.28;;
53108;SDS011;39007;53.090;6.074;2024-02-16T09:04:37;11.02;;;5.75;;
53108;SDS011;39007;53.090;6.074;2024-02-16T09:07:03;12.48;;;6.07;;
53108;SDS011;39007;53.090;6.074;2024-02-16T09:09:30;10.50;;;6.60;;
53108;SDS011;39007;53.090;6.074;2024-02-16T09:11:56;12.18;;;6.53;;
53108;SDS011;39007;53.090;6.074;2024-02-16T09:14:22;16.42;;;7.40;;
53108;SDS011;39007;53.090;6.074;2024-02-16T09:16:49;14.13;;;6.65;;
53108;SDS011;39007;53.090;6.074;2024-02-16T09:19:18;11.80;;;6.57;;
53108;SDS011;39007;53.090;6.074;2024-02-16T09:21:45;12.43;;;6.70;;
53108;SDS011;39007;53.090;6.074;2024-02-16T09:24:11;12.70;;;6.93;;
53108;SDS011;39007;53.090;6.074;2024-02-16T09:26:43;11.70;;;6.53;;
53108;SDS011;39007;53.090;6.074;2024-02-16T09:29:11;11.10;;;6.65;;
53108;SDS011;39007;53.090;6.074;2024-02-16T09:31:37;11.35;;;5.47;;
53108;SDS011;39007;53.090;6.074;2024-02-16T09:34:04;11.70;;;5.70;;
53108;SDS011;39007;53.090;6.074;2024-02-16T09:36:31;10.90;;;5.18;;
53108;SDS011;39007;53.090;6.074;2024-02-16T09:38:57;12.25;;;6.20;;
53108;SDS011;39007;53.090;6.074;2024-02-16T09:41:23;9.35;;;5.80;;
53108;SDS011;39007;53.090;6.074;2024-02-16T09:43:50;11.35;;;6.07;;
53108;SDS011;39007;53.090;6.074;2024-02-16T09:46:19;10.82;;;6.15;;
53108;SDS011;39007;53.090;6.074;2024-02-16T09:48:45;14.30;;;6.22;;
53108;SDS011;39007;53.090;6.074;2024-02-16T09:51:13;12.30;;;5.97;;
53108;SDS011;39007;53.090;6.074;2024-02-16T09:53:41;10.30;;;6.35;;
53108;SDS011;39007;53.090;6.074;2024-02-16T09:56:07;10.75;;;6.13;;
53108;SDS011;39007;53.090;6.074;2024-02-16T09:58:36;9.90;;;6.28;;
53108;SDS011;39007;53.090;6.074;2024-02-16T10:01:02;11.95;;;5.97;;
53108;SDS011;39007;53.090;6.074;2024-02-16T10:03:29;8.30;;;5.28;;
53108;SDS011;39007;53.090;6.074;2024-02-16T10:06:09;14.77;;;5.75;;
53108;SDS011;39007;53.090;6.074;2024-02-16T10:08:55;10.23;;;5.45;;
53108;SDS011;39007;53.090;6.074;2024-02-16T10:11:23;12.00;;;6.00;;
53108;SDS011;39007;53.090;6.074;2024-02-16T10:13:59;12.38;;;6.03;;
53108;SDS011;39007;53.090;6.074;2024-02-16T10:16:26;12.07;;;6.53;;
53108;SDS011;39007;53.090;6.074;2024-02-16T10:18:54;12.05;;;6.35;;
53108;SDS011;39007;53.090;6.074;2024-02-16T10:21:27;11.23;;;6.45;;
53108;SDS011;39007;53.090;6.074;2024-02-16T10:24:04;11.65;;;6.28;;
53108;SDS011;39007;53.090;6.074;2024-02-16T10:26:34;14.98;;;6.57;;
53108;SDS011;39007;53.090;6.074;2024-02-16T10:29:02;11.27;;;6.53;;
53108;SDS011;39007;53.090;6.074;2024-02-16T10:31:29;13.85;;;6.63;;
53108;SDS011;39007;53.090;6.074;2024-02-16T10:34:03;12.57;;;7.10;;
53108;SDS011;39007;53.090;6.074;2024-02-16T10:36:32;14.18;;;8.02;;
53108;SDS011;39007;53.090;6.074;2024-02-16T10:38:59;15.30;;;7.70;;
53108;SDS011;39007;53.090;6.074;2024-02-16T10:41:27;17.33;;;7.88;;
53108;SDS011;39007;53.090;6.074;2024-02-16T10:43:56;15.82;;;7.70;;
53108;SDS011;39007;53.090;6.074;2024-02-16T10:46:23;16.02;;;8.80;;
53108;SDS011;39007;53.090;6.074;2024-02-16T10:48:49;19.27;;;9.88;;
53108;SDS011;39007;53.090;6.074;2024-02-16T10:51:17;16.80;;;8.98;;
53108;SDS011;39007;53.090;6.074;2024-02-16T10:53:45;25.85;;;11.30;;
53108;SDS011;39007;53.090;6.074;2024-02-16T10:56:13;23.10;;;10.82;;
53108;SDS011;39007;53.090;6.074;2024-02-16T10:58:39;25.73;;;12.25;;
53108;SDS011;39007;53.090;6.074;2024-02-16T11:01:09;25.83;;;13.18;;
53108;SDS011;39007;53.090;6.074;2024-02-16T11:03:38;32.05;;;14.38;;
53108;SDS011;39007;53.090;6.074;2024-02-16T11:06:14;29.45;;;13.00;;
53108;SDS011;39007;53.090;6.074;2024-02-16T11:08:43;31.85;;;13.82;;
53108;SDS011;39007;53.090;6.074;2024-02-16T11:11:10;23.63;;;12.82;;
53108;SDS011;39007;53.090;6.074;2024-02-16T11:13:37;28.25;;;13.63;;
53108;SDS011;39007;53.090;6.074;2024-02-16T11:16:07;29.08;;;12.70;;
53108;SDS011;39007;53.090;6.074;2024-02-16T11:18:38;24.40;;;12.07;;
53108;SDS011;39007;53.090;6.074;2024-02-16T11:21:05;25.80;;;12.30;;
53108;SDS011;39007;53.090;6.074;2024-02-16T11:23:34;21.17;;;11.15;;
53108;SDS011;39007;53.090;6.074;2024-02-16T11:26:02;20.55;;;10.82;;
53108;SDS011;39007;53.090;6.074;2024-02-16T11:28:29;22.98;;;10.95;;
53108;SDS011;39007;53.090;6.074;2024-02-16T11:30:56;18.65;;;10.63;;
53108;SDS011;39007;53.090;6.074;2024-02-16T11:33:22;18.73;;;10.18;;
53108;SDS011;39007;53.090;6.074;2024-02-16T11:35:52;20.40;;;10.98;;
53108;SDS011;39007;53.090;6.074;2024-02-16T11:38:18;20.15;;;10.43;;
53108;SDS011;39007;53.090;6.074;2024-02-16T11:40:52;19.15;;;9.82;;
53108;SDS011;39007;53.090;6.074;2024-02-16T11:43:20;17.00;;;9.93;;
53108;SDS011;39007;53.090;6.074;2024-02-16T11:45:47;20.05;;;10.35;;
53108;SDS011;39007;53.090;6.074;2024-02-16T11:48:18;18.90;;;10.45;;
53108;SDS011;39007;53.090;6.074;2024-02-16T11:50:44;19.15;;;9.70;;
53108;SDS011;39007;53.090;6.074;2024-02-16T11:53:14;19.55;;;9.90;;
53108;SDS011;39007;53.090;6.074;2024-02-16T11:55:40;18.83;;;9.27;;
53108;SDS011;39007;53.090;6.074;2024-02-16T11:58:12;15.57;;;8.93;;
53108;SDS011;39007;53.090;6.074;2024-02-16T12:00:39;19.30;;;8.88;;
53108;SDS011;39007;53.090;6.074;2024-02-16T12:03:06;16.05;;;8.90;;
53108;SDS011;39007;53.090;6.074;2024-02-16T12:05:33;16.15;;;8.57;;
53108;SDS011;39007;53.090;6.074;2024-02-16T12:07:59;16.00;;;9.00;;
53108;SDS011;39007;53.090;6.074;2024-02-16T12:10:25;17.83;;;8.45;;
53108;SDS011;39007;53.090;6.074;2024-02-16T12:12:52;13.35;;;8.02;;
53108;SDS011;39007;53.090;6.074;2024-02-16T12:15:18;13.75;;;8.25;;
53108;SDS011;39007;53.090;6.074;2024-02-16T12:17:45;13.48;;;7.90;;
53108;SDS011;39007;53.090;6.074;2024-02-16T12:20:12;14.98;;;8.15;;
53108;SDS011;39007;53.090;6.074;2024-02-16T12:22:41;11.52;;;7.43;;
53108;SDS011;39007;53.090;6.074;2024-02-16T12:25:07;12.70;;;7.05;;
53108;SDS011;39007;53.090;6.074;2024-02-16T12:27:33;11.63;;;7.30;;
53108;SDS011;39007;53.090;6.074;2024-02-16T12:29:59;13.32;;;7.28;;
53108;SDS011;39007;53.090;6.074;2024-02-16T12:32:25;11.85;;;5.65;;
53108;SDS011;39007;53.090;6.074;2024-02-16T12:34:51;9.75;;;6.40;;
53108;SDS011;39007;53.090;6.074;2024-02-16T12:37:17;9.68;;;5.93;;
53108;SDS011;39007;53.090;6.074;2024-02-16T12:39:43;9.48;;;5.65;;
53108;SDS011;39007;53.090;6.074;2024-02-16T12:42:11;8.88;;;4.90;;
53108;SDS011;39007;53.090;6.074;2024-02-16T12:44:38;7.43;;;4.90;;
53108;SDS011;39007;53.090;6.074;2024-02-16T12:47:04;7.05;;;4.80;;
53108;SDS011;39007;53.090;6.074;2024-02-16T12:49:31;6.38;;;4.38;;
53108;SDS011;39007;53.090;6.074;2024-02-16T12:51:57;7.18;;;4.70;;
53108;SDS011;39007;53.090;6.074;2024-02-16T12:54:23;7.45;;;3.97;;
53108;SDS011;39007;53.090;6.074;2024-02-16T12:56:50;8.90;;;5.70;;
53108;SDS011;39007;53.090;6.074;2024-02-16T12:59:16;7.60;;;5.07;;
53108;SDS011;39007;53.090;6.074;2024-02-16T13:01:42;6.35;;;4.10;;
53108;SDS011;39007;53.090;6.074;2024-02-16T13:04:08;6.82;;;4.13;;
53108;SDS011;39007;53.090;6.074;2024-02-16T13:06:35;6.15;;;3.20;;
53108;SDS011;39007;53.090;6.074;2024-02-16T13:09:01;6.15;;;3.40;;
53108;SDS011;39007;53.090;6.074;2024-02-16T13:11:28;7.57;;;3.53;;
53108;SDS011;39007;53.090;6.074;2024-02-16T13:13:54;5.68;;;3.13;;
53108;SDS011;39007;53.090;6.074;2024-02-16T13:16:20;7.90;;;3.58;;
53108;SDS011;39007;53.090;6.074;2024-02-16T13:18:46;6.00;;;3.00;;
53108;SDS011;39007;53.090;6.074;2024-02-16T13:21:12;9.50;;;3.03;;
53108;SDS011;39007;53.090;6.074;2024-02-16T13:23:40;8.82;;;3.17;;
53108;SDS011;39007;53.090;6.074;2024-02-16T13:26:06;8.20;;;3.22;;
53108;SDS011;39007;53.090;6.074;2024-02-16T13:28:33;12.63;;;3.10;;
53108;SDS011;39007;53.090;6.074;2024-02-16T13:30:59;9.27;;;4.00;;
53108;SDS011;39007;53.090;6.074;2024-02-16T13:33:25;9.50;;;3.90;;
53108;SDS011;39007;53.090;6.074;2024-02-16T13:35:51;8.77;;;4.72;;
53108;SDS011;39007;53.090;6.074;2024-02-16T13:38:17;9.50;;;5.72;;
53108;SDS011;39007;53.090;6.074;2024-02-16T13:40:43;14.23;;;5.43;;
53108;SDS011;39007;53.090;6.074;2024-02-16T13:43:10;10.23;;;6.10;;
53108;SDS011;39007;53.090;6.074;2024-02-16T13:45:48;11.70;;;6.60;;
53108;SDS011;39007;53.090;6.074;2024-02-16T13:48:15;14.40;;;6.28;;
53108;SDS011;39007;53.090;6.074;2024-02-16T13:50:48;14.80;;;6.93;;
53108;SDS011;39007;53.090;6.074;2024-02-16T13:53:14;13.10;;;7.15;;
53108;SDS011;39007;53.090;6.074;2024-02-16T13:55:41;12.77;;;6.82;;
53108;SDS011;39007;53.090;6.074;2024-02-16T13:58:08;14.52;;;6.97;;
53108;SDS011;39007;53.090;6.074;2024-02-16T14:00:35;17.02;;;7.13;;
53108;SDS011;39007;53.090;6.074;2024-02-16T14:03:01;16.05;;;7.50;;
53108;SDS011;39007;53.090;6.074;2024-02-16T14:05:27;15.75;;;7.10;;
53108;SDS011;39007;53.090;6.074;2024-02-16T14:07:53;20.83;;;7.38;;
53108;SDS011;39007;53.090;6.074;2024-02-16T14:10:19;16.40;;;7.07;;
53108;SDS011;39007;53.090;6.074;2024-02-16T14:12:45;17.60;;;7.38;;
53108;SDS011;39007;53.090;6.074;2024-02-16T14:15:12;16.75;;;6.80;;
53108;SDS011;39007;53.090;6.074;2024-02-16T14:17:43;18.25;;;7.80;;
53108;SDS011;39007;53.090;6.074;2024-02-16T14:20:10;19.95;;;7.63;;
53108;SDS011;39007;53.090;6.074;2024-02-16T14:22:36;18.25;;;7.80;;
53108;SDS011;39007;53.090;6.074;2024-02-16T14:25:02;27.33;;;8.57;;
53108;SDS011;39007;53.090;6.074;2024-02-16T14:27:28;23.95;;;8.23;;
53108;SDS011;39007;53.090;6.074;2024-02-16T14:29:55;30.20;;;8.00;;
53108;SDS011;39007;53.090;6.074;2024-02-16T14:32:21;16.52;;;6.93;;
53108;SDS011;39007;53.090;6.074;2024-02-16T14:34:47;23.08;;;7.70;;
53108;SDS011;39007;53.090;6.074;2024-02-16T14:37:13;17.58;;;7.00;;